createdAt,value
2022-09-15T00:01:21.381Z,17.52
2022-09-15T00:04:09.734Z,16.20
2022-09-15T00:06:57.475Z,21.02
2022-09-15T00:09:45.207Z,17.02
2022-09-15T00:12:33.481Z,18.88
2022-09-15T00:15:22.049Z,20.30
2022-09-15T00:18:09.842Z,23.30
2022-09-15T00:20:57.999Z,29.35
2022-09-15T00:23:47.042Z,26.35
2022-09-15T00:26:35.876Z,26.13
2022-09-15T00:29:23.659Z,26.55
2022-09-15T00:32:11.492Z,27.25
2022-09-15T00:34:59.224Z,26.80
2022-09-15T00:37:46.950Z,25.88
2022-09-15T00:40:55.488Z,25.67
2022-09-15T00:43:57.501Z,30.17
2022-09-15T00:47:04.299Z,31.45
2022-09-15T00:50:10.422Z,26.17
2022-09-15T00:53:01.828Z,29.88
2022-09-15T00:55:51.098Z,25.08
2022-09-15T00:59:02.666Z,32.78
2022-09-15T01:02:04.872Z,26.38
2022-09-15T01:04:58.201Z,28.80
2022-09-15T01:08:11.586Z,28.15
2022-09-15T01:11:00.498Z,28.27
2022-09-15T01:13:48.289Z,37.63
2022-09-15T01:16:47.751Z,30.63
2022-09-15T01:20:23.481Z,24.35
2022-09-15T01:23:44.677Z,32.65
2022-09-15T01:27:30.643Z,21.30
2022-09-15T01:30:26.072Z,28.25
2022-09-15T01:33:31.804Z,23.73
2022-09-15T01:36:48.292Z,19.90
2022-09-15T01:39:41.785Z,24.58
2022-09-15T01:42:31.762Z,29.00
2022-09-15T01:45:33.226Z,31.05
2022-09-15T01:48:25.310Z,27.25
2022-09-15T01:51:14.070Z,28.10
2022-09-15T01:54:05.765Z,27.95
2022-09-15T01:56:53.520Z,34.22
2022-09-15T01:59:41.289Z,35.80
2022-09-15T02:02:59.181Z,38.67
2022-09-15T02:05:58.957Z,39.10
2022-09-15T02:09:13.419Z,35.53
2022-09-15T02:12:08.807Z,39.05
2022-09-15T02:15:08.658Z,38.40
2022-09-15T02:17:57.990Z,36.45
2022-09-15T02:20:53.541Z,38.65
2022-09-15T02:23:47.656Z,39.22
2022-09-15T02:26:38.405Z,38.10
2022-09-15T02:29:27.725Z,39.42
2022-09-15T02:32:19.521Z,49.35
2022-09-15T02:35:09.945Z,36.47
2022-09-15T02:37:59.783Z,41.00
2022-09-15T02:40:48.405Z,34.65
2022-09-15T02:43:46.350Z,36.17
2022-09-15T02:46:34.107Z,36.53
2022-09-15T02:49:21.851Z,33.30
2022-09-15T02:52:09.542Z,41.28
2022-09-15T02:54:57.266Z,40.58
2022-09-15T02:57:45.052Z,43.38
2022-09-15T03:00:32.843Z,43.33
2022-09-15T03:03:21.975Z,44.22
2022-09-15T03:06:20.971Z,52.28
2022-09-15T03:09:09.157Z,36.78
2022-09-15T03:11:56.871Z,25.38
2022-09-15T03:14:44.561Z,31.88
2022-09-15T03:17:37.008Z,35.50
2022-09-15T03:20:30.298Z,39.03
2022-09-15T03:23:18.121Z,39.77
2022-09-15T03:26:07.848Z,30.60
2022-09-15T03:28:56.143Z,38.30
2022-09-15T03:31:44.179Z,38.85
2022-09-15T03:34:32.020Z,42.92
2022-09-15T03:37:19.917Z,42.80
2022-09-15T03:40:10.741Z,47.10
2022-09-15T03:42:58.644Z,39.63
2022-09-15T03:45:46.400Z,32.85
2022-09-15T03:48:35.739Z,34.15
2022-09-15T03:51:24.083Z,32.80
2022-09-15T03:54:12.052Z,26.20
2022-09-15T03:56:59.795Z,27.55
2022-09-15T03:59:47.552Z,24.17
2022-09-15T04:02:35.311Z,25.27
2022-09-15T04:05:23.220Z,23.08
2022-09-15T04:08:13.029Z,24.80
2022-09-15T04:11:08.077Z,21.38
2022-09-15T04:13:56.169Z,24.85
2022-09-15T04:16:44.034Z,27.73
2022-09-15T04:19:31.833Z,31.45
2022-09-15T04:22:20.103Z,24.98
2022-09-15T04:25:09.251Z,22.77
2022-09-15T04:27:57.895Z,26.50
2022-09-15T04:30:45.612Z,17.33
2022-09-15T04:33:34.338Z,12.88
2022-09-15T04:36:25.453Z,15.95
2022-09-15T04:39:13.908Z,19.10
2022-09-15T04:42:05.075Z,15.48
2022-09-15T04:44:52.874Z,15.38
2022-09-15T04:47:40.610Z,15.73
2022-09-15T04:50:28.392Z,11.32
2022-09-15T04:53:16.999Z,16.60
2022-09-15T04:56:25.759Z,14.20
2022-09-15T04:59:18.999Z,15.10
2022-09-15T05:02:06.799Z,12.63
2022-09-15T05:04:54.570Z,15.05
2022-09-15T05:07:42.504Z,15.93
2022-09-15T05:10:30.372Z,15.73
2022-09-15T05:13:18.070Z,15.38
2022-09-15T05:16:27.224Z,14.15
2022-09-15T05:19:15.031Z,16.10
2022-09-15T05:22:02.775Z,11.93
2022-09-15T05:24:50.555Z,15.70
2022-09-15T05:27:39.323Z,9.50
2022-09-15T05:30:44.432Z,9.75
2022-09-15T05:33:32.783Z,11.30
2022-09-15T05:36:25.136Z,17.08
2022-09-15T05:39:13.262Z,11.30
2022-09-15T05:42:01.155Z,15.07
2022-09-15T05:44:48.978Z,10.90
2022-09-15T05:47:36.815Z,11.75
2022-09-15T05:50:24.573Z,14.98
2022-09-15T05:53:12.293Z,12.02
2022-09-15T05:56:03.299Z,11.38
2022-09-15T05:58:51.090Z,11.05
2022-09-15T06:01:38.925Z,9.43
2022-09-15T06:04:26.989Z,9.40
2022-09-15T06:07:14.725Z,8.60
2022-09-15T06:10:04.295Z,7.40
2022-09-15T06:12:55.499Z,11.18
2022-09-15T06:15:43.329Z,7.40
2022-09-15T06:18:32.687Z,10.93
2022-09-15T06:21:24.070Z,7.68
2022-09-15T06:24:12.706Z,11.85
2022-09-15T06:27:00.521Z,7.70
2022-09-15T06:29:48.804Z,9.43
2022-09-15T06:32:36.596Z,10.60
2022-09-15T06:35:24.402Z,8.00
2022-09-15T06:38:12.136Z,8.75
2022-09-15T06:41:00.261Z,8.13
2022-09-15T06:43:49.273Z,9.85
2022-09-15T06:46:37.134Z,15.65
2022-09-15T06:49:25.971Z,9.23
2022-09-15T06:52:13.660Z,8.00
2022-09-15T06:55:01.478Z,8.20
2022-09-15T06:57:50.661Z,9.30
2022-09-15T07:00:38.422Z,8.35
2022-09-15T07:03:26.367Z,7.28
2022-09-15T07:06:14.775Z,10.38
2022-09-15T07:09:03.690Z,8.45
2022-09-15T07:11:51.411Z,7.15
2022-09-15T07:14:39.156Z,6.85
2022-09-15T07:17:27.185Z,9.88
2022-09-15T07:20:14.987Z,9.82
2022-09-15T07:23:03.357Z,9.20
2022-09-15T07:25:51.123Z,7.95
2022-09-15T07:28:40.092Z,7.40
2022-09-15T07:31:32.627Z,3.72
2022-09-15T07:34:20.435Z,6.22
2022-09-15T07:37:08.574Z,6.70
2022-09-15T07:39:59.874Z,5.53
2022-09-15T07:42:47.699Z,2.88
2022-09-15T07:45:36.101Z,5.32
2022-09-15T07:48:26.493Z,5.80
2022-09-15T07:51:15.492Z,3.80
2022-09-15T07:54:03.276Z,6.03
2022-09-15T07:56:51.072Z,3.65
2022-09-15T07:59:41.223Z,6.13
2022-09-15T08:02:29.406Z,5.30
2022-09-15T08:05:17.209Z,6.93
2022-09-15T08:08:05.896Z,7.28
2022-09-15T08:10:53.682Z,5.88
2022-09-15T08:13:41.517Z,3.63
2022-09-15T08:16:29.545Z,6.35
2022-09-15T08:19:17.361Z,3.17
2022-09-15T08:22:05.611Z,6.25
2022-09-15T08:24:55.899Z,6.78
2022-09-15T08:27:43.879Z,2.60
2022-09-15T08:30:32.567Z,3.85
2022-09-15T08:33:20.558Z,6.43
2022-09-15T08:36:13.428Z,3.08
2022-09-15T08:39:01.548Z,4.63
2022-09-15T08:41:52.896Z,4.63
2022-09-15T08:45:09.952Z,6.32
2022-09-15T08:48:01.553Z,5.57
2022-09-15T08:50:52.358Z,5.75
2022-09-15T08:53:48.089Z,6.32
2022-09-15T08:56:37.144Z,3.80
2022-09-15T08:59:32.501Z,3.75
2022-09-15T09:02:55.377Z,4.07
2022-09-15T09:06:03.870Z,5.20
2022-09-15T09:09:34.092Z,2.88
2022-09-15T09:12:49.525Z,2.25
2022-09-15T09:15:55.752Z,4.70
2022-09-15T09:19:32.131Z,5.38
2022-09-15T09:22:29.611Z,3.22
2022-09-15T09:25:27.552Z,7.28
2022-09-15T09:29:00.076Z,3.88
2022-09-15T09:31:50.969Z,17.60
2022-09-15T09:34:47.594Z,3.88
2022-09-15T09:37:35.405Z,4.82
2022-09-15T09:40:23.290Z,7.15
2022-09-15T09:43:11.715Z,7.50
2022-09-15T09:45:59.768Z,5.78
2022-09-15T09:48:55.063Z,5.03
2022-09-15T09:51:55.133Z,6.50
2022-09-15T09:54:43.013Z,5.72
2022-09-15T09:57:32.510Z,4.28
2022-09-15T10:00:40.349Z,7.15
2022-09-15T10:03:32.683Z,5.13
2022-09-15T10:06:24.354Z,11.73
2022-09-15T10:09:19.415Z,7.90
2022-09-15T10:12:07.795Z,6.60
2022-09-15T10:15:00.637Z,7.22
2022-09-15T10:17:50.427Z,6.55
2022-09-15T10:20:51.294Z,7.22
2022-09-15T10:23:39.035Z,6.28
2022-09-15T10:26:34.215Z,6.85
2022-09-15T10:29:23.705Z,4.43
2022-09-15T10:32:25.287Z,6.10
2022-09-15T10:35:20.868Z,8.38
2022-09-15T10:38:26.340Z,8.38
2022-09-15T10:41:29.597Z,6.28
2022-09-15T10:44:47.893Z,8.30
2022-09-15T10:48:20.329Z,7.88
2022-09-15T10:51:38.366Z,7.07
2022-09-15T10:54:41.266Z,10.40
2022-09-15T10:58:04.498Z,10.30
2022-09-15T11:01:18.239Z,6.13
2022-09-15T11:04:49.767Z,6.50
2022-09-15T11:08:15.174Z,11.02
2022-09-15T11:11:20.946Z,9.50
2022-09-15T11:14:30.170Z,9.90
2022-09-15T11:17:48.867Z,12.75
2022-09-15T11:21:10.449Z,12.00
2022-09-15T11:24:43.430Z,16.20
2022-09-15T11:27:41.137Z,11.32
2022-09-15T11:30:45.639Z,13.35
2022-09-15T11:33:53.003Z,9.98
2022-09-15T11:37:11.026Z,8.50
2022-09-15T11:40:05.576Z,6.60
2022-09-15T11:43:45.979Z,8.57
2022-09-15T11:46:52.573Z,11.18
2022-09-15T11:49:56.918Z,7.97
2022-09-15T11:53:09.501Z,10.35
2022-09-15T11:56:32.556Z,6.70
2022-09-15T11:59:34.508Z,7.82
2022-09-15T12:02:51.322Z,7.82
2022-09-15T12:06:40.926Z,6.88
2022-09-15T12:09:31.475Z,6.28
2022-09-15T12:12:21.817Z,6.32
2022-09-15T12:15:17.438Z,8.43
2022-09-15T12:18:38.988Z,6.72
2022-09-15T12:22:01.269Z,3.90
2022-09-15T12:25:01.115Z,3.92
2022-09-15T12:28:24.284Z,5.57
2022-09-15T12:31:14.258Z,5.63
2022-09-15T12:34:27.133Z,5.55
2022-09-15T12:37:16.314Z,5.43
2022-09-15T12:40:07.698Z,5.35
2022-09-15T12:42:56.912Z,6.00
2022-09-15T12:46:01.764Z,5.53
2022-09-15T12:48:50.212Z,7.07
2022-09-15T12:51:37.975Z,10.00
2022-09-15T12:54:33.116Z,6.25
2022-09-15T12:57:32.676Z,6.10
2022-09-15T13:00:49.996Z,7.70
2022-09-15T13:03:50.859Z,5.80
2022-09-15T13:06:38.708Z,8.27
2022-09-15T13:09:28.582Z,10.07
2022-09-15T13:12:17.976Z,11.20
2022-09-15T13:15:13.523Z,8.65
2022-09-15T13:18:05.845Z,4.28
2022-09-15T13:21:07.165Z,5.53
2022-09-15T13:23:55.949Z,4.88
2022-09-15T13:26:49.232Z,4.85
2022-09-15T13:29:47.617Z,4.68
2022-09-15T13:33:22.100Z,6.13
2022-09-15T13:40:50.552Z,6.35
2022-09-15T13:43:56.258Z,7.07
2022-09-15T13:47:12.471Z,7.35
2022-09-15T13:50:21.850Z,7.45
2022-09-15T13:53:43.197Z,10.27
2022-09-15T13:56:39.560Z,6.13
2022-09-15T13:59:32.678Z,8.05
2022-09-15T14:02:21.231Z,4.38
2022-09-15T14:05:09.868Z,6.63
2022-09-15T14:08:07.996Z,5.13
2022-09-15T14:11:02.139Z,7.18
2022-09-15T14:16:39.699Z,6.03
2022-09-15T14:19:37.131Z,7.13
2022-09-15T14:22:33.832Z,6.18
2022-09-15T14:25:22.304Z,6.45
2022-09-15T14:28:21.367Z,7.63
2022-09-15T14:31:09.435Z,6.05
2022-09-15T14:33:57.683Z,6.60
2022-09-15T14:36:46.970Z,5.30
2022-09-15T14:39:37.718Z,4.75
2022-09-15T14:42:30.650Z,5.75
2022-09-15T14:48:31.972Z,4.70
2022-09-15T14:51:28.584Z,3.97
2022-09-15T14:54:26.484Z,6.05
2022-09-15T14:57:26.548Z,6.88
2022-09-15T15:00:23.662Z,5.43
2022-09-15T15:03:40.898Z,5.53
2022-09-15T15:07:17.215Z,4.30
2022-09-15T15:10:19.788Z,8.18
2022-09-15T15:13:23.883Z,7.47
2022-09-15T15:16:28.729Z,4.28
2022-09-15T15:19:41.941Z,6.30
2022-09-15T15:22:29.712Z,5.68
2022-09-15T15:25:32.280Z,7.82
2022-09-15T15:28:36.215Z,4.65
2022-09-15T15:31:26.771Z,5.00
2022-09-15T15:34:24.253Z,8.23
2022-09-15T15:37:26.933Z,7.35
2022-09-15T15:40:21.008Z,4.32
2022-09-15T15:46:11.574Z,7.80
2022-09-15T15:48:59.710Z,4.65
2022-09-15T15:51:48.176Z,5.05
2022-09-15T15:54:36.011Z,6.38
2022-09-15T15:57:27.535Z,4.90
2022-09-15T16:00:26.409Z,6.15
2022-09-15T16:03:16.014Z,5.82
2022-09-15T16:06:03.841Z,11.02
2022-09-15T16:08:52.660Z,4.88
2022-09-15T16:11:42.647Z,8.27
2022-09-15T16:14:30.457Z,5.03
2022-09-15T16:17:18.228Z,4.80
2022-09-15T16:20:07.149Z,7.40
2022-09-15T16:22:54.977Z,6.63
2022-09-15T16:26:05.173Z,5.43
2022-09-15T16:28:53.039Z,7.82
2022-09-15T16:31:42.942Z,8.45
2022-09-15T16:34:30.910Z,4.80
2022-09-15T16:37:18.694Z,7.18
2022-09-15T16:40:07.186Z,5.47
2022-09-15T16:42:55.019Z,4.95
2022-09-15T16:45:44.031Z,7.03
2022-09-15T16:48:31.749Z,4.68
2022-09-15T16:51:28.869Z,10.85
2022-09-15T16:54:22.872Z,6.10
2022-09-15T16:57:10.864Z,5.32
2022-09-15T16:59:58.647Z,4.22
2022-09-15T17:02:46.355Z,7.35
2022-09-15T17:05:45.148Z,4.90
2022-09-15T17:08:35.572Z,8.23
2022-09-15T17:11:25.378Z,5.30
2022-09-15T17:14:16.337Z,5.45
2022-09-15T17:17:04.563Z,5.25
2022-09-15T17:19:52.335Z,8.82
2022-09-15T17:22:40.081Z,5.13
2022-09-15T17:25:35.572Z,3.97
2022-09-15T17:28:27.412Z,5.95
2022-09-15T17:31:20.916Z,5.13
2022-09-15T17:34:14.295Z,4.63
2022-09-15T17:37:02.088Z,7.27
2022-09-15T17:39:50.642Z,9.38
2022-09-15T17:42:38.389Z,7.10
2022-09-15T17:45:30.263Z,5.13
2022-09-15T17:48:18.383Z,6.57
2022-09-15T17:51:09.497Z,5.15
2022-09-15T17:53:57.222Z,5.25
2022-09-15T17:56:44.957Z,4.47
2022-09-15T17:59:32.743Z,3.72
2022-09-15T18:02:21.259Z,10.65
2022-09-15T18:05:29.579Z,6.40
2022-09-15T18:08:17.564Z,9.85
2022-09-15T18:11:06.476Z,6.88
2022-09-15T18:13:54.485Z,4.53
2022-09-15T18:16:43.163Z,6.00
2022-09-15T18:19:30.920Z,5.53
2022-09-15T18:22:19.816Z,6.95
2022-09-15T18:25:14.389Z,6.40
2022-09-15T18:28:03.810Z,5.68
2022-09-15T18:30:52.256Z,7.55
2022-09-15T18:33:40.364Z,12.13
2022-09-15T18:36:28.721Z,4.63
2022-09-15T18:39:16.453Z,4.75
2022-09-15T18:42:04.376Z,5.63
2022-09-15T18:44:52.162Z,5.15
2022-09-15T18:47:43.741Z,8.23
2022-09-15T18:50:32.081Z,7.10
2022-09-15T18:53:19.921Z,7.75
2022-09-15T18:56:15.652Z,6.47
2022-09-15T18:59:03.473Z,7.38
2022-09-15T19:01:51.349Z,4.85
2022-09-15T19:04:40.765Z,7.25
2022-09-15T19:07:28.916Z,7.28
2022-09-15T19:10:17.354Z,5.00
2022-09-15T19:13:05.198Z,7.07
2022-09-15T19:15:53.686Z,11.30
2022-09-15T19:18:41.522Z,7.07
2022-09-15T19:21:29.231Z,8.52
2022-09-15T19:24:17.053Z,4.78
2022-09-15T19:27:07.213Z,4.60
2022-09-15T19:29:55.094Z,8.75
2022-09-15T19:32:43.354Z,5.20
2022-09-15T19:35:31.163Z,7.25
2022-09-15T19:38:19.477Z,5.68
2022-09-15T19:41:11.685Z,3.50
2022-09-15T19:44:01.981Z,4.28
2022-09-15T19:46:49.898Z,5.88
2022-09-15T19:49:37.674Z,5.07
2022-09-15T19:52:26.397Z,5.68
2022-09-15T19:55:14.203Z,8.90
2022-09-15T19:58:01.901Z,2.33
2022-09-15T20:00:56.700Z,6.15
2022-09-15T20:03:44.823Z,5.13
2022-09-15T20:06:33.064Z,5.03
2022-09-15T20:09:20.915Z,4.28
2022-09-15T20:12:08.714Z,4.93
2022-09-15T20:14:56.480Z,2.95
2022-09-15T20:17:44.306Z,5.85
2022-09-15T20:20:32.811Z,4.30
2022-09-15T20:23:21.353Z,5.93
2022-09-15T20:26:13.082Z,5.15
2022-09-15T20:29:02.203Z,6.97
2022-09-15T20:31:50.123Z,3.33
2022-09-15T20:34:37.866Z,9.73
2022-09-15T20:37:25.720Z,5.15
2022-09-15T20:40:13.501Z,4.18
2022-09-15T20:43:01.315Z,6.13
2022-09-15T20:46:04.978Z,6.43
2022-09-15T20:48:52.869Z,5.57
2022-09-15T20:51:40.679Z,6.05
2022-09-15T20:54:28.433Z,5.82
2022-09-15T20:57:16.209Z,5.80
2022-09-15T21:00:05.925Z,7.22
2022-09-15T21:02:53.750Z,7.07
2022-09-15T21:05:43.376Z,5.50
2022-09-15T21:08:31.548Z,3.78
2022-09-15T21:11:21.161Z,9.40
2022-09-15T21:14:13.615Z,5.82
2022-09-15T21:17:01.405Z,5.07
2022-09-15T21:19:49.107Z,5.28
2022-09-15T21:22:36.876Z,5.55
2022-09-15T21:25:24.840Z,3.80
2022-09-15T21:28:14.287Z,5.53
2022-09-15T21:31:14.939Z,6.88
2022-09-15T21:34:02.940Z,4.68
2022-09-15T21:36:51.739Z,9.63
2022-09-15T21:39:39.541Z,6.82
2022-09-15T21:42:27.554Z,9.52
2022-09-15T21:45:15.414Z,5.88
2022-09-15T21:48:03.538Z,8.10
2022-09-15T21:50:52.234Z,6.20
2022-09-15T21:53:41.014Z,6.30
2022-09-15T21:56:29.982Z,6.55
2022-09-15T21:59:18.402Z,9.23
2022-09-15T22:02:06.243Z,4.35
2022-09-15T22:04:54.468Z,5.95
2022-09-15T22:07:42.218Z,5.65
2022-09-15T22:10:31.422Z,6.15
2022-09-15T22:13:19.186Z,2.88
2022-09-15T22:16:20.042Z,7.90
2022-09-15T22:19:10.543Z,5.18
2022-09-15T22:21:58.300Z,8.05
2022-09-15T22:24:47.920Z,6.72
2022-09-15T22:27:35.862Z,5.13
2022-09-15T22:30:23.641Z,5.38
2022-09-15T22:33:11.394Z,6.30
2022-09-15T22:35:59.654Z,5.53
2022-09-15T22:38:47.700Z,9.10
2022-09-15T22:41:38.169Z,6.25
2022-09-15T22:44:25.910Z,5.68
2022-09-15T22:47:13.889Z,7.50
2022-09-15T22:50:02.709Z,6.53
2022-09-15T22:52:51.964Z,4.00
2022-09-15T22:55:40.094Z,7.45
2022-09-15T22:58:27.814Z,8.82
2022-09-15T23:01:21.557Z,3.92
2022-09-15T23:04:09.724Z,6.05
2022-09-15T23:06:57.463Z,8.73
2022-09-15T23:09:45.188Z,6.57
2022-09-15T23:12:33.294Z,8.25
2022-09-15T23:15:21.052Z,6.72
2022-09-15T23:18:08.772Z,8.02
2022-09-15T23:21:02.407Z,6.05
2022-09-15T23:23:53.338Z,3.67
2022-09-15T23:26:41.366Z,9.52
2022-09-15T23:29:29.119Z,5.57
2022-09-15T23:32:17.144Z,6.07
2022-09-15T23:35:05.601Z,4.88
2022-09-15T23:37:53.321Z,7.10
2022-09-15T23:40:42.959Z,5.80
2022-09-15T23:43:30.924Z,4.38
2022-09-15T23:46:18.752Z,4.35
2022-09-15T23:49:06.579Z,4.65
2022-09-15T23:51:54.377Z,4.78
2022-09-15T23:54:42.344Z,6.40
2022-09-15T23:57:30.130Z,5.72
